Time;durP1;ratioP1;P1;durP2;ratioP2;P2;SDS_P1;SDS_P2;PMS_P1;PMS_P2;Temp;Humidity;BMP_temperature;BMP_pressure;BME280_temperature;BME280_humidity;BME280_pressure;Samples;Min_cycle;Max_cycle;Signal;HPM_P1;HPM_P2
2022/06/23 00:00:49;;;;;;;21.50;10.23;;;;;;;21.29;81.11;100014.03;4930685;28;20080;-75
2022/06/23 00:03:20;;;;;;;15.95;9.95;;;;;;;21.16;81.49;99995.50;4931333;28;20063;-76
2022/06/23 00:05:58;;;;;;;15.20;9.52;;;;;;;21.23;81.79;100003.88;4933859;28;20044;-75
2022/06/23 00:08:25;;;;;;;16.08;9.45;;;;;;;21.24;81.77;100019.03;4927011;28;20496;-75
2022/06/23 00:10:55;;;;;;;22.25;10.52;;;;;;;21.23;81.94;100023.56;4933956;28;20454;-75
2022/06/23 00:13:40;;;;;;;;;;;;;;;21.23;82.37;100022.72;4933182;28;20575;-75
2022/06/23 00:16:20;;;;;;;16.15;11.10;;;;;;;21.17;82.61;100012.50;4931483;28;19927;-76
2022/06/23 00:18:47;;;;;;;20.95;10.82;;;;;;;21.09;82.64;100007.88;4925750;28;20067;-74
2022/06/23 00:21:22;;;;;;;16.75;10.70;;;;;;;21.06;82.51;100008.19;4934655;28;20122;-76
2022/06/23 00:23:54;;;;;;;20.63;12.90;;;;;;;21.25;82.62;100031.50;4928194;28;20582;-76
2022/06/23 00:26:29;;;;;;;17.30;11.80;;;;;;;21.21;82.42;100008.56;4930822;28;20500;-76
2022/06/23 00:29:25;;;;;;;22.92;13.90;;;;;;;21.22;82.46;100016.50;4931889;28;20405;-74
2022/06/23 00:32:03;;;;;;;21.23;14.95;;;;;;;21.19;82.78;100006.03;4928814;29;20056;-74
2022/06/23 00:34:39;;;;;;;20.60;14.88;;;;;;;21.01;83.20;99987.06;4931491;28;20040;-74
2022/06/23 00:37:17;;;;;;;31.80;21.52;;;;;;;21.04;84.30;100009.31;4932025;28;20512;-74
2022/06/23 00:40:11;;;;;;;29.05;17.63;;;;;;;20.91;85.32;99993.50;4928357;28;20558;-75
2022/06/23 00:42:49;;;;;;;24.15;15.00;;;;;;;20.93;85.26;99999.59;4927838;28;20051;-75
2022/06/23 00:45:40;;;;;;;25.52;15.65;;;;;;;20.89;85.77;100001.72;4933167;28;20106;-75
2022/06/23 00:48:12;;;;;;;21.80;15.55;;;;;;;20.76;85.60;100003.06;4928230;28;20582;-75
2022/06/23 00:50:48;;;;;;;23.33;16.13;;;;;;;20.70;86.21;100015.22;4933732;28;20052;-75
2022/06/23 00:53:26;;;;;;;18.15;13.38;;;;;;;20.60;87.16;100007.19;4930703;28;20047;-74
2022/06/23 00:56:15;;;;;;;21.67;12.15;;;;;;;20.49;87.05;100012.72;4927469;28;20504;-75
2022/06/23 00:59:02;;;;;;;18.50;9.35;;;;;;;20.35;85.69;100010.44;4926916;28;20134;-76
2022/06/23 01:01:41;;;;;;;17.13;9.18;;;;;;;20.24;85.97;100022.22;4930787;28;20460;-76
2022/06/23 01:04:24;;;;;;;19.85;10.02;;;;;;;20.09;86.21;100010.22;4928458;28;20135;-74
2022/06/23 01:07:07;;;;;;;19.42;8.77;;;;;;;19.89;87.17;99997.75;4929639;29;20142;-74
2022/06/23 01:09:48;;;;;;;17.33;8.73;;;;;;;19.83;87.74;100003.69;4926298;28;20388;-75
2022/06/23 01:12:36;;;;;;;15.65;9.20;;;;;;;19.72;88.43;100001.97;4930195;28;20485;-76
2022/06/23 01:15:23;;;;;;;16.98;9.73;;;;;;;19.65;88.86;99995.47;4925443;28;20150;-74
2022/06/23 01:17:59;;;;;;;17.38;8.63;;;;;;;19.64;89.09;100001.84;4920249;29;20043;-75
2022/06/23 01:20:51;;;;;;;17.90;9.82;;;;;;;19.61;89.44;100004.81;4929338;29;20055;-76
2022/06/23 01:23:50;;;;;;;17.98;9.52;;;;;;;19.59;89.97;100001.41;4928456;29;20476;-75
2022/06/23 01:26:46;;;;;;;19.17;10.20;;;;;;;19.58;89.94;100013.13;4918954;28;20128;-75
2022/06/23 01:29:41;;;;;;;21.48;9.88;;;;;;;19.58;90.24;100015.81;4923861;28;20052;-75
2022/06/23 01:32:13;;;;;;;16.52;9.68;;;;;;;19.57;90.38;100004.22;4923276;28;20043;-76
2022/06/23 01:34:49;;;;;;;21.65;10.90;;;;;;;19.61;90.03;100011.03;4925890;28;20059;-76
2022/06/23 01:37:25;;;;;;;17.40;10.27;;;;;;;19.41;90.26;99981.53;4930083;28;20538;-76
2022/06/23 01:40:10;;;;;;;19.35;11.05;;;;;;;19.44;90.75;100002.75;4926524;28;20563;-75
2022/06/23 01:42:48;;;;;;;18.83;10.60;;;;;;;19.41;91.42;99987.75;4925191;28;20355;-75
2022/06/23 01:45:23;;;;;;;20.80;10.32;;;;;;;19.30;91.05;99965.56;4935467;29;20103;-75
2022/06/23 01:48:51;;;;;;;18.58;10.57;;;;;;;19.39;90.55;99992.41;4944149;28;20077;-76
2022/06/23 01:51:22;;;;;;;14.75;9.70;;;;;;;19.29;90.50;99994.25;4935211;28;20063;-76
2022/06/23 01:53:51;;;;;;;13.85;10.20;;;;;;;19.14;91.42;99980.34;4934805;29;20047;-76
2022/06/23 01:56:26;;;;;;;15.98;10.20;;;;;;;19.12;91.86;99987.69;4937747;28;20078;-76
2022/06/23 01:58:59;;;;;;;18.77;10.57;;;;;;;19.05;92.28;99989.19;4935719;28;20048;-77
2022/06/23 02:01:37;;;;;;;18.02;10.98;;;;;;;18.89;92.86;99975.44;4934422;28;20063;-75
2022/06/23 02:04:14;;;;;;;19.90;10.43;;;;;;;18.97;93.66;99985.50;4935199;28;20091;-75
2022/06/23 02:06:50;;;;;;;20.48;10.38;;;;;;;19.06;92.61;99984.69;4929828;28;20103;-76
2022/06/23 02:09:45;;;;;;;19.92;10.90;;;;;;;19.06;91.88;99984.69;4929669;29;20063;-75
2022/06/23 02:12:20;;;;;;;20.42;9.80;;;;;;;18.92;91.80;99964.44;4927331;28;20104;-76
2022/06/23 02:14:57;;;;;;;16.98;10.38;;;;;;;19.00;91.52;99994.16;4927159;28;20475;-75
2022/06/23 02:17:44;;;;;;;16.67;10.38;;;;;;;18.97;92.18;99996.25;4928683;29;20133;-75
2022/06/23 02:20:44;;;;;;;19.27;10.88;;;;;;;18.75;92.23;99979.34;4931186;28;20063;-75
2022/06/23 02:23:18;;;;;;;15.95;9.85;;;;;;;18.83;92.79;100003.69;4923694;28;20107;-75
2022/06/23 02:25:57;;;;;;;18.25;11.00;;;;;;;18.75;93.17;100003.47;4933580;28;20048;-75
2022/06/23 02:28:38;;;;;;;17.02;10.35;;;;;;;18.73;93.91;100004.63;4931126;28;20067;-75
2022/06/23 02:31:26;;;;;;;21.88;11.32;;;;;;;18.71;93.86;100012.81;4930783;28;20044;-74
2022/06/23 02:34:05;;;;;;;18.35;11.38;;;;;;;18.57;94.25;99999.72;4928151;29;20044;-76
2022/06/23 02:36:53;;;;;;;22.30;10.45;;;;;;;18.63;94.48;100025.16;4931530;28;20449;-75
2022/06/23 02:39:48;;;;;;;16.13;10.75;;;;;;;18.54;94.30;100016.91;4924340;28;20694;-75
2022/06/23 02:42:32;;;;;;;17.67;10.20;;;;;;;18.53;94.85;100020.56;4926657;28;20052;-75
2022/06/23 02:45:08;;;;;;;18.52;10.35;;;;;;;18.56;94.39;100023.00;4929375;28;20056;-75
2022/06/23 02:47:44;;;;;;;18.90;10.80;;;;;;;18.50;94.03;100022.66;4931217;28;20060;-75
2022/06/23 02:50:38;;;;;;;20.20;10.75;;;;;;;18.40;94.33;100032.47;4936272;28;20055;-75
2022/06/23 02:53:27;;;;;;;18.58;11.80;;;;;;;18.34;95.46;100039.19;4929329;28;20056;-75
2022/06/23 02:56:05;;;;;;;20.65;11.52;;;;;;;18.29;95.72;100036.03;4930761;28;20044;-75
2022/06/23 02:58:43;;;;;;;17.90;12.05;;;;;;;18.21;95.39;100043.91;4925171;28;20079;-76
2022/06/23 03:01:29;;;;;;;20.55;11.70;;;;;;;18.10;95.37;100042.09;4929569;28;20142;-75
2022/06/23 03:04:13;;;;;;;18.25;11.98;;;;;;;18.04;96.31;100037.25;4931236;28;20103;-76
2022/06/23 03:07:11;;;;;;;20.02;11.70;;;;;;;18.07;96.21;100047.75;4931500;28;20078;-75
2022/06/23 03:09:46;;;;;;;18.58;10.93;;;;;;;18.04;95.54;100057.84;4930569;28;20643;-76
2022/06/23 03:12:26;;;;;;;16.65;11.35;;;;;;;18.01;95.34;100058.09;4928455;28;20111;-75
2022/06/23 03:15:01;;;;;;;18.08;12.05;;;;;;;17.93;95.76;100048.03;4932051;28;20130;-77
2022/06/23 03:17:37;;;;;;;17.83;11.50;;;;;;;17.63;95.76;100005.81;4932337;28;20075;-77
2022/06/23 03:20:10;;;;;;;19.90;11.88;;;;;;;17.99;95.76;100060.06;4925184;28;20139;-75
2022/06/23 03:22:53;;;;;;;24.38;12.02;;;;;;;17.91;95.87;100039.28;4930925;28;20056;-76
2022/06/23 03:25:52;;;;;;;21.48;11.95;;;;;;;18.11;94.96;100059.88;4932662;28;20077;-75
2022/06/23 03:28:37;;;;;;;17.50;10.93;;;;;;;18.14;93.70;100066.81;4919279;28;20048;-75
2022/06/23 03:31:43;;;;;;;17.23;11.32;;;;;;;18.10;93.24;100066.22;4928217;28;20476;-74
2022/06/23 03:34:23;;;;;;;25.95;11.80;;;;;;;18.10;92.77;100062.72;4925744;28;20058;-75
2022/06/23 03:37:00;;;;;;;17.02;11.05;;;;;;;18.07;93.32;100054.91;4925018;28;20492;-75
2022/06/23 03:42:32;;;;;;;23.20;12.55;;;;;;;17.99;93.03;100060.91;4928795;29;20047;-75
2022/06/23 03:45:32;;;;;;;21.40;12.52;;;;;;;17.92;93.79;100065.09;4932380;28;20122;-76
2022/06/23 03:48:41;;;;;;;26.00;13.18;;;;;;;17.86;94.83;100066.44;4934856;28;20135;-75
2022/06/23 03:51:29;;;;;;;19.60;13.50;;;;;;;17.83;95.49;100068.50;4908291;29;20048;-76
2022/06/23 03:53:56;;;;;;;18.67;12.60;;;;;;;17.85;95.44;100063.88;4902502;29;20552;-76
2022/06/23 03:56:27;;;;;;;20.40;12.95;;;;;;;17.86;95.33;100076.28;4932484;28;20489;-76
2022/06/23 03:59:02;;;;;;;23.30;14.00;;;;;;;17.77;95.37;100063.66;4930244;29;20047;-75
2022/06/23 04:01:54;;;;;;;18.90;13.32;;;;;;;17.85;95.45;100072.75;4925860;28;20056;-75
2022/06/23 04:04:25;;;;;;;21.05;13.18;;;;;;;17.87;95.94;100073.50;4927658;28;20470;-75
2022/06/23 04:06:52;;;;;;;;;;;;;;;17.94;95.69;100078.34;4933894;28;20048;-75
2022/06/23 04:09:27;;;;;;;21.33;12.38;;;;;;;17.94;95.46;100073.00;4928001;28;19962;-75
2022/06/23 04:12:06;;;;;;;24.00;13.60;;;;;;;17.99;95.23;100068.09;4927912;28;20484;-75
2022/06/23 04:14:55;;;;;;;23.55;12.20;;;;;;;18.11;95.05;100077.78;4931741;28;20059;-75
2022/06/23 04:17:44;;;;;;;22.60;12.68;;;;;;;18.19;94.11;100072.66;4923980;29;20063;-75
2022/06/23 04:20:14;;;;;;;16.73;12.40;;;;;;;18.25;93.54;100082.88;4923513;28;20519;-76
2022/06/23 04:22:57;;;;;;;19.38;12.57;;;;;;;18.37;92.80;100094.38;4924764;29;20047;-75
2022/06/23 04:25:34;;;;;;;20.73;12.98;;;;;;;18.39;92.78;100097.78;4932890;28;20122;-75
2022/06/23 04:28:01;;;;;;;18.70;11.95;;;;;;;18.42;92.25;100098.34;4929835;28;20059;-76
2022/06/23 04:30:33;;;;;;;21.40;12.25;;;;;;;18.47;92.01;100093.47;4931028;28;20043;-75
2022/06/23 04:33:04;;;;;;;22.73;13.60;;;;;;;18.52;91.69;100101.97;4932295;28;20044;-74
2022/06/23 04:35:35;;;;;;;21.80;12.60;;;;;;;18.59;91.61;100099.66;4930885;28;20048;-75
2022/06/23 04:38:14;;;;;;;19.95;12.90;;;;;;;18.71;90.78;100103.16;4928160;28;20079;-75
2022/06/23 04:40:40;;;;;;;18.33;12.75;;;;;;;18.72;89.84;100091.44;4927364;28;20051;-75
2022/06/23 04:43:34;;;;;;;20.23;12.98;;;;;;;18.82;89.32;100106.59;4927509;28;20060;-77
2022/06/23 04:46:28;;;;;;;20.92;12.30;;;;;;;18.86;89.17;100100.00;4927514;28;20106;-74
2022/06/23 04:49:26;;;;;;;17.38;12.32;;;;;;;18.96;88.35;100105.41;4926236;28;20094;-75
2022/06/23 04:51:58;;;;;;;18.27;12.63;;;;;;;18.90;87.60;100101.41;4928980;28;20048;-76
2022/06/23 04:54:50;;;;;;;18.75;11.45;;;;;;;19.05;87.43;100115.34;4941725;28;20150;-75
2022/06/23 04:57:40;;;;;;;18.27;11.30;;;;;;;19.10;86.04;100110.44;4917895;29;20074;-75
2022/06/23 05:00:22;;;;;;;17.03;10.83;;;;;;;19.19;85.58;100108.78;4927670;28;20135;-76
2022/06/23 05:02:54;;;;;;;15.32;10.27;;;;;;;19.27;84.47;100104.44;4920705;29;20055;-76
2022/06/23 05:05:29;;;;;;;17.42;10.27;;;;;;;19.24;83.82;100075.19;4930439;28;20127;-76
2022/06/23 05:08:04;;;;;;;17.60;10.80;;;;;;;19.47;82.74;100102.69;4927906;28;20067;-76
2022/06/23 05:10:37;;;;;;;17.33;11.07;;;;;;;19.60;82.15;100110.53;4930206;28;20084;-74
2022/06/23 05:13:15;;;;;;;14.48;10.43;;;;;;;19.58;80.69;100093.69;4927218;28;20095;-76
2022/06/23 05:15:49;;;;;;;17.33;10.38;;;;;;;19.72;80.72;100112.13;4927868;29;20044;-75
2022/06/23 05:18:28;;;;;;;13.52;9.90;;;;;;;19.79;79.74;100105.22;4923789;28;20119;-76
2022/06/23 05:20:58;;;;;;;12.43;9.80;;;;;;;19.84;78.96;100105.63;4932121;29;20127;-75
2022/06/23 05:23:36;;;;;;;17.90;10.80;;;;;;;19.82;78.39;100090.66;4930943;28;20055;-75
2022/06/23 05:26:08;;;;;;;13.82;9.60;;;;;;;19.96;78.67;100101.03;4919648;29;20118;-76
2022/06/23 05:28:37;;;;;;;17.60;10.32;;;;;;;20.00;78.34;100112.31;4930024;28;20044;-75
2022/06/23 05:31:13;;;;;;;13.98;10.10;;;;;;;19.84;78.58;100089.53;4927214;28;20059;-77
2022/06/23 05:33:47;;;;;;;18.05;12.98;;;;;;;20.08;77.72;100115.19;4922710;29;20079;-75
2022/06/23 05:36:26;;;;;;;13.75;9.95;;;;;;;19.98;77.49;100099.03;4928867;28;20083;-76
2022/06/23 05:39:13;;;;;;;11.23;9.60;;;;;;;20.08;77.79;100121.41;4923338;28;20111;-76
2022/06/23 05:41:47;;;;;;;14.77;9.88;;;;;;;20.09;77.46;100133.84;4924497;29;20103;-77
2022/06/23 05:44:23;;;;;;;16.95;10.57;;;;;;;20.11;77.15;100117.59;4923779;28;20478;-77
2022/06/23 05:46:51;;;;;;;14.35;9.70;;;;;;;20.15;77.66;100122.53;4927735;28;20052;-77
2022/06/23 05:49:30;;;;;;;17.02;10.50;;;;;;;20.23;77.08;100129.91;4927465;28;20068;-76
2022/06/23 05:52:14;;;;;;;14.35;10.50;;;;;;;20.35;76.97;100122.56;4924935;28;20044;-77
2022/06/23 05:55:04;;;;;;;13.68;10.48;;;;;;;20.41;76.68;100130.94;4922817;28;20043;-75
2022/06/23 05:57:39;;;;;;;13.60;9.80;;;;;;;20.46;76.19;100115.22;4926561;28;20104;-75
2022/06/23 06:00:16;;;;;;;19.33;10.63;;;;;;;20.59;75.74;100134.63;4924841;28;20151;-75
2022/06/23 06:02:45;;;;;;;17.23;10.43;;;;;;;20.64;76.04;100140.41;4926148;28;20091;-75
2022/06/23 06:05:38;;;;;;;18.63;9.63;;;;;;;20.79;75.66;100138.13;4929664;28;20055;-75
2022/06/23 06:08:14;;;;;;;16.42;10.50;;;;;;;20.96;74.58;100142.78;4923713;28;20634;-75
2022/06/23 06:10:41;;;;;;;21.85;12.02;;;;;;;21.19;74.11;100137.09;4930493;28;20135;-75
2022/06/23 06:13:14;;;;;;;21.67;11.02;;;;;;;21.30;73.63;100120.78;4927152;28;20460;-76
2022/06/23 06:15:47;;;;;;;18.35;11.63;;;;;;;21.61;73.42;100130.28;4924022;29;20040;-74
2022/06/23 06:18:36;;;;;;;20.17;12.63;;;;;;;22.00;71.91;100136.34;4926119;28;20059;-74
2022/06/23 06:21:07;;;;;;;18.83;11.50;;;;;;;22.37;70.49;100119.19;4924470;28;20508;-75
2022/06/23 06:24:13;;;;;;;19.77;11.55;;;;;;;23.01;68.46;100116.19;4929336;28;20455;-74
2022/06/23 06:26:44;;;;;;;16.75;13.27;;;;;;;23.62;65.23;100125.19;4927572;28;20047;-74
2022/06/23 06:29:20;;;;;;;19.45;11.85;;;;;;;24.00;64.30;100119.25;4923979;28;20524;-74
2022/06/23 06:31:51;;;;;;;16.92;12.30;;;;;;;24.39;62.11;100121.41;4919685;29;20052;-74
2022/06/23 06:34:37;;;;;;;20.88;14.20;;;;;;;24.56;60.56;100119.53;4924138;28;20048;-74
2022/06/23 06:37:07;;;;;;;17.63;11.80;;;;;;;24.70;60.81;100117.03;4927764;28;20047;-75
2022/06/23 06:39:42;;;;;;;20.80;13.05;;;;;;;24.67;61.81;100101.09;4924880;28;20123;-74
2022/06/23 06:42:18;;;;;;;16.60;11.55;;;;;;;24.79;61.34;100101.59;4927445;28;20111;-75
2022/06/23 06:44:48;;;;;;;20.23;14.88;;;;;;;25.24;60.32;100120.00;4928297;28;20051;-74
2022/06/23 06:47:22;;;;;;;20.73;13.32;;;;;;;25.55;57.89;100105.69;4929814;28;20118;-74
2022/06/23 06:49:49;;;;;;;21.20;11.73;;;;;;;25.92;55.79;100100.47;4924840;28;20054;-76
2022/06/23 06:52:16;;;;;;;20.05;13.32;;;;;;;25.91;56.58;100106.06;4932235;28;20079;-76
2022/06/23 06:54:48;;;;;;;18.52;12.57;;;;;;;25.97;55.94;100111.66;4934101;28;20075;-75
2022/06/23 06:57:51;;;;;;;20.55;13.77;;;;;;;26.03;55.69;100108.19;4927496;28;20052;-74
2022/06/23 07:00:27;;;;;;;15.25;11.48;;;;;;;26.22;56.82;100109.63;4924820;28;20044;-75
2022/06/23 07:02:58;;;;;;;14.95;11.23;;;;;;;26.43;53.44;100100.84;4928570;28;20106;-74
2022/06/23 07:05:50;;;;;;;17.35;11.93;;;;;;;26.73;53.12;100107.22;4928108;28;20409;-74
2022/06/23 07:08:21;;;;;;;19.02;12.18;;;;;;;26.46;53.68;100052.44;4928516;28;20483;-74
2022/06/23 07:10:54;;;;;;;19.52;11.70;;;;;;;26.78;53.64;100096.63;4930282;28;20048;-75
2022/06/23 07:13:43;;;;;;;22.33;12.23;;;;;;;26.87;52.01;100104.56;4935537;28;20112;-75
2022/06/23 07:16:19;;;;;;;16.17;11.05;;;;;;;27.07;51.58;100096.75;4925747;28;20515;-74
2022/06/23 07:18:55;;;;;;;14.55;11.38;;;;;;;27.15;52.25;100107.53;4928722;28;20095;-74
2022/06/23 07:21:33;;;;;;;18.85;10.35;;;;;;;27.29;50.91;100111.28;4928666;28;20052;-74
2022/06/23 07:24:53;;;;;;;18.77;11.35;;;;;;;27.41;50.47;100107.06;4933862;28;20400;-74
2022/06/23 07:27:24;;;;;;;15.18;9.45;;;;;;;27.52;50.50;100103.88;4927785;29;20054;-73
2022/06/23 07:30:42;;;;;;;13.43;8.90;;;;;;;27.39;50.86;100106.41;4929936;29;20402;-76
2022/06/23 07:33:34;;;;;;;13.25;8.73;;;;;;;27.39;51.75;100098.25;4929412;28;20056;-73
2022/06/23 07:36:08;;;;;;;15.90;8.98;;;;;;;27.67;49.84;100092.19;4930106;28;20095;-73
2022/06/23 07:38:47;;;;;;;15.65;9.32;;;;;;;27.82;49.61;100093.00;4931020;28;20492;-73
2022/06/23 07:41:35;;;;;;;17.65;9.70;;;;;;;27.93;48.33;100095.22;4930581;28;20083;-73
2022/06/23 07:44:22;;;;;;;10.95;7.75;;;;;;;28.15;49.25;100088.78;4926831;28;20087;-73
2022/06/23 07:46:49;;;;;;;16.63;7.55;;;;;;;28.05;49.58;100069.19;4931561;28;20095;-74
2022/06/23 07:49:25;;;;;;;12.50;7.35;;;;;;;28.27;48.49;100098.16;4932385;28;20432;-73
2022/06/23 07:51:55;;;;;;;9.93;7.50;;;;;;;28.42;48.39;100092.63;4931657;28;20040;-74
2022/06/23 07:54:23;;;;;;;15.13;9.32;;;;;;;27.89;49.01;100061.25;4929688;28;20114;-74
2022/06/23 07:56:51;;;;;;;12.82;7.90;;;;;;;27.50;51.05;100091.50;4932539;28;20102;-73
2022/06/23 07:59:23;;;;;;;11.73;7.82;;;;;;;27.68;49.82;100083.84;4930316;28;20058;-74
2022/06/23 08:01:52;;;;;;;12.63;7.78;;;;;;;28.03;49.54;100084.00;4928061;28;20055;-74
2022/06/23 08:04:31;;;;;;;12.20;7.78;;;;;;;28.22;49.21;100080.69;4927102;28;20056;-74
2022/06/23 08:07:03;;;;;;;10.15;6.50;;;;;;;28.31;48.73;100073.25;4928054;28;20067;-75
2022/06/23 08:09:36;;;;;;;13.88;7.82;;;;;;;28.32;47.79;100050.44;4931716;28;20501;-74
2022/06/23 08:18:30;;;;;;;16.75;7.82;;;;;;;28.94;46.09;100070.50;4918513;28;20087;-74
2022/06/23 08:21:15;;;;;;;12.45;7.10;;;;;;;29.01;45.99;100065.06;4926380;28;20059;-74
2022/06/23 08:24:08;;;;;;;10.65;6.70;;;;;;;29.19;46.31;100065.41;4930311;28;20123;-73
2022/06/23 08:26:38;;;;;;;15.38;8.38;;;;;;;29.28;44.70;100071.53;4926063;28;20058;-74
2022/06/23 08:29:09;;;;;;;15.82;8.18;;;;;;;29.03;45.68;100046.63;4931985;28;20064;-74
2022/06/23 08:31:37;;;;;;;10.18;7.40;;;;;;;28.77;45.69;100066.34;4924267;28;20048;-74
2022/06/23 08:34:24;;;;;;;9.95;7.05;;;;;;;28.25;47.04;100062.09;4930465;28;20055;-74
2022/06/23 08:36:57;;;;;;;11.70;6.65;;;;;;;28.29;48.02;100062.56;4929848;28;20069;-74
2022/06/23 08:39:30;;;;;;;11.80;7.50;;;;;;;28.62;46.58;100052.81;4928716;29;20548;-73
2022/06/23 08:42:17;;;;;;;12.25;6.18;;;;;;;28.89;45.98;100042.97;4927617;28;20059;-74
2022/06/23 08:44:56;;;;;;;10.52;6.70;;;;;;;29.00;46.73;100052.47;4934846;28;20051;-73
2022/06/23 08:47:25;;;;;;;8.25;6.38;;;;;;;28.87;46.77;100050.50;4928967;28;20075;-73
2022/06/23 08:50:05;;;;;;;9.18;6.50;;;;;;;28.96;45.39;100049.31;4927695;29;20040;-74
2022/06/23 08:52:58;;;;;;;12.07;6.10;;;;;;;29.09;45.21;100055.91;4928069;28;20071;-73
2022/06/23 08:55:39;;;;;;;10.20;5.57;;;;;;;29.11;44.69;100041.03;4929730;28;20373;-73
2022/06/23 08:58:49;;;;;;;11.48;6.22;;;;;;;29.12;44.48;100039.16;4927599;28;20139;-73
2022/06/23 09:01:24;;;;;;;11.50;6.38;;;;;;;29.16;44.72;100041.25;4918084;28;20044;-73
2022/06/23 09:04:17;;;;;;;11.18;5.70;;;;;;;29.21;43.66;100032.47;4929239;28;20147;-75
2022/06/23 09:06:54;;;;;;;6.93;5.55;;;;;;;29.27;43.79;100035.25;4926506;29;20477;-74
2022/06/23 09:09:54;;;;;;;8.00;6.05;;;;;;;29.40;42.94;100034.50;4926688;28;20047;-74
2022/06/23 09:12:45;;;;;;;10.80;5.90;;;;;;;29.33;42.81;100019.94;4925952;28;20449;-73
2022/06/23 09:15:48;;;;;;;11.77;5.90;;;;;;;29.32;43.17;100021.00;4930309;28;20529;-74
2022/06/23 09:18:52;;;;;;;9.98;5.00;;;;;;;29.84;42.11;100035.94;4926460;28;20059;-74
2022/06/23 09:21:30;;;;;;;10.20;5.53;;;;;;;29.91;42.48;100025.84;4928129;28;20507;-72
2022/06/23 09:24:48;;;;;;;8.75;5.65;;;;;;;29.37;43.59;100004.03;4926732;28;20058;-74
2022/06/23 09:27:39;;;;;;;11.95;5.65;;;;;;;29.49;43.61;100018.78;4929246;28;20415;-74
2022/06/23 09:30:13;;;;;;;8.35;5.25;;;;;;;29.53;43.59;100020.91;4927945;28;20089;-74
2022/06/23 09:33:04;;;;;;;14.57;5.85;;;;;;;29.48;43.02;100017.13;4925832;28;20059;-75
2022/06/23 09:36:10;;;;;;;12.40;5.35;;;;;;;29.19;43.48;100016.31;4924393;29;20073;-74
2022/06/23 09:39:04;;;;;;;10.10;5.15;;;;;;;28.95;43.82;99995.00;4922501;28;20059;-74
2022/06/23 09:41:49;;;;;;;9.82;5.20;;;;;;;29.01;43.85;100009.72;4928628;28;20086;-73
2022/06/23 09:44:32;;;;;;;8.77;4.90;;;;;;;28.90;43.67;99989.31;4933184;28;20102;-74
2022/06/23 09:47:07;;;;;;;8.32;4.88;;;;;;;29.04;43.71;100009.31;4923995;28;20070;-74
2022/06/23 09:50:13;;;;;;;7.90;4.70;;;;;;;29.08;44.26;100003.25;4930349;28;20055;-74
2022/06/23 09:53:17;;;;;;;10.85;4.78;;;;;;;29.25;44.01;99993.72;4930239;28;20051;-74
2022/06/23 09:56:24;;;;;;;8.93;4.80;;;;;;;29.19;43.58;99969.13;4940545;28;20052;-74
2022/06/23 09:59:13;;;;;;;9.73;4.65;;;;;;;29.33;43.95;99998.97;4920477;28;20055;-73
2022/06/23 10:02:19;;;;;;;9.70;5.22;;;;;;;28.94;44.80;99990.59;4920671;28;20047;-74
2022/06/23 10:05:22;;;;;;;13.57;5.15;;;;;;;28.82;45.79;99982.13;4945761;28;20142;-74
2022/06/23 10:08:18;;;;;;;8.85;4.90;;;;;;;28.95;45.40;99992.28;4928483;28;20124;-74
2022/06/23 10:11:20;;;;;;;8.50;4.32;;;;;;;28.97;43.19;99991.03;4928583;28;20400;-74
2022/06/23 10:14:14;;;;;;;12.13;4.88;;;;;;;29.01;43.97;99975.09;4925997;28;20077;-74
2022/06/23 10:17:19;;;;;;;9.77;4.13;;;;;;;29.03;44.44;99983.94;4921481;29;20047;-74
2022/06/23 10:19:51;;;;;;;8.88;4.80;;;;;;;28.79;44.61;99971.66;4923992;29;20070;-73
2022/06/23 10:22:27;;;;;;;10.55;4.88;;;;;;;28.86;44.25;99967.06;4921695;28;20048;-73
2022/06/23 10:25:25;;;;;;;11.98;4.32;;;;;;;29.14;43.69;99977.91;4932221;28;20059;-74
2022/06/23 10:28:25;;;;;;;9.35;3.75;;;;;;;29.37;42.70;99974.88;4926196;29;20552;-73
2022/06/23 10:31:31;;;;;;;9.52;4.45;;;;;;;29.40;42.91;99965.47;4920930;29;20086;-73
2022/06/23 10:34:43;;;;;;;9.88;4.07;;;;;;;29.46;42.42;99962.75;4927316;28;20093;-75
2022/06/23 10:37:30;;;;;;;10.48;3.90;;;;;;;29.56;40.89;99930.50;4930381;28;20106;-73
2022/06/23 10:40:07;;;;;;;8.20;3.40;;;;;;;29.74;40.65;99956.34;4928190;28;20519;-74
2022/06/23 10:43:13;;;;;;;7.85;3.83;;;;;;;29.77;40.67;99951.28;4932321;28;20079;-75
2022/06/23 10:46:01;;;;;;;10.45;3.85;;;;;;;29.78;41.19;99950.25;4930930;28;20154;-74
2022/06/23 10:49:02;;;;;;;8.00;4.22;;;;;;;29.87;41.36;99949.03;4932344;29;20484;-74
2022/06/23 10:52:07;;;;;;;8.93;4.00;;;;;;;29.87;40.92;99942.72;4935626;28;20060;-74
2022/06/23 10:54:52;;;;;;;10.35;4.63;;;;;;;29.92;41.20;99937.44;4932005;28;20114;-74
2022/06/23 10:57:56;;;;;;;8.20;3.85;;;;;;;30.33;39.51;99938.16;4927067;29;20052;-71
2022/06/23 11:00:37;;;;;;;5.90;3.65;;;;;;;30.40;38.60;99915.44;4928184;28;20090;-73
2022/06/23 11:03:37;;;;;;;6.53;3.53;;;;;;;30.47;39.77;99929.94;4928499;29;20148;-73
2022/06/23 11:06:22;;;;;;;8.82;4.03;;;;;;;30.56;38.89;99934.97;4927483;28;20071;-73
2022/06/23 11:09:17;;;;;;;9.77;4.20;;;;;;;30.46;38.95;99930.97;4929530;28;20520;-73
2022/06/23 11:12:13;;;;;;;10.38;4.28;;;;;;;30.17;40.03;99921.34;4928565;28;20135;-73
2022/06/23 11:15:08;;;;;;;7.93;3.95;;;;;;;30.27;40.58;99913.56;4931617;28;20040;-73
2022/06/23 11:17:54;;;;;;;9.02;4.32;;;;;;;30.35;39.73;99922.38;4931266;28;20122;-72
2022/06/23 11:20:38;;;;;;;6.57;3.80;;;;;;;30.27;38.89;99914.41;4927887;28;20465;-72
2022/06/23 11:23:23;;;;;;;8.40;4.10;;;;;;;30.37;39.05;99924.06;4917940;29;20370;-73
2022/06/23 11:26:07;;;;;;;8.48;4.13;;;;;;;30.50;37.40;99891.25;4929998;28;20044;-73
2022/06/23 11:28:34;;;;;;;6.28;3.58;;;;;;;30.73;37.84;99910.78;4932428;28;20107;-72
2022/06/23 11:31:00;;;;;;;7.10;3.90;;;;;;;30.94;37.92;99899.56;4926193;29;20479;-73
2022/06/23 11:33:53;;;;;;;7.85;3.95;;;;;;;31.03;37.73;99867.34;4931938;28;20079;-73
2022/06/23 11:36:32;;;;;;;9.02;4.60;;;;;;;31.39;37.19;99889.50;4921953;29;20050;-73
2022/06/23 11:39:12;;;;;;;8.45;3.92;;;;;;;31.45;36.83;99896.00;4929537;29;20487;-73
2022/06/23 11:41:59;;;;;;;5.43;3.80;;;;;;;31.24;37.71;99890.84;4928015;29;20110;-75
2022/06/23 11:44:45;;;;;;;7.25;4.55;;;;;;;31.19;37.55;99890.66;4932793;28;20048;-73
2022/06/23 11:47:20;;;;;;;6.57;3.70;;;;;;;31.22;37.50;99898.44;4935822;28;20107;-73
2022/06/23 11:49:58;;;;;;;7.10;3.85;;;;;;;31.40;37.67;99884.88;4927368;29;20063;-71
2022/06/23 11:53:13;;;;;;;5.78;3.75;;;;;;;31.65;37.45;99879.47;4931589;28;20047;-74
2022/06/23 11:55:55;;;;;;;10.73;4.80;;;;;;;31.99;37.38;99857.06;4915335;29;20078;-72
2022/06/23 11:58:50;;;;;;;10.75;3.85;;;;;;;32.18;36.16;99857.97;4925519;28;20043;-72
2022/06/23 12:01:24;;;;;;;8.13;4.47;;;;;;;32.30;35.41;99886.31;4919751;29;20230;-72
2022/06/23 12:04:23;;;;;;;9.20;4.03;;;;;;;32.35;35.81;99863.75;4925772;29;20047;-72
2022/06/23 12:07:08;;;;;;;11.17;4.63;;;;;;;32.34;35.30;99868.38;4920267;28;20138;-73
2022/06/23 12:09:42;;;;;;;9.63;3.85;;;;;;;32.15;36.39;99855.66;4927956;28;20460;-74
2022/06/23 12:12:08;;;;;;;9.00;3.67;;;;;;;32.02;36.80;99850.31;4935819;28;20060;-74
2022/06/23 12:14:37;;;;;;;7.50;3.55;;;;;;;32.24;36.46;99854.38;4929347;28;20404;-73
2022/06/23 12:17:16;;;;;;;9.60;4.38;;;;;;;32.21;35.76;99849.34;4930466;28;20052;-73
2022/06/23 12:20:35;;;;;;;10.45;4.15;;;;;;;32.41;35.97;99849.13;4928410;28;20047;-73
2022/06/23 12:23:12;;;;;;;4.90;3.38;;;;;;;32.57;35.24;99834.00;4934812;28;20048;-73
2022/06/23 12:25:47;;;;;;;9.90;3.80;;;;;;;32.41;34.27;99788.84;4927182;28;20075;-73
2022/06/23 12:28:45;;;;;;;8.27;4.05;;;;;;;32.69;34.68;99841.22;4926993;29;20063;-72
2022/06/23 12:31:36;;;;;;;6.45;3.60;;;;;;;32.47;35.13;99841.88;4921775;29;20506;-73
2022/06/23 12:34:19;;;;;;;7.13;3.45;;;;;;;32.62;35.20;99836.88;4923803;28;20063;-72
2022/06/23 12:37:28;;;;;;;9.13;3.42;;;;;;;32.48;34.69;99838.09;4927001;28;20044;-72